Time;durP1;ratioP1;P1;durP2;ratioP2;P2;SDS_P1;SDS_P2;PMS_P1;PMS_P2;Temp;Humidity;BMP_temperature;BMP_pressure;BME280_temperature;BME280_humidity;BME280_pressure;Samples;Min_cycle;Max_cycle;Signal;HPM_P1;HPM_P2
2022/09/05 04:32:05;;;;;;;;;1.00;1.00;;;;;;;;5181379;22;45236;-65
2022/09/05 04:34:40;;;;;;;;;2.33;1.33;;;;;;;;4998448;28;45667;-63
2022/09/05 04:37:07;;;;;;;;;1.00;1.00;;;;;;;;4999595;28;45548;-65
2022/09/05 04:39:33;;;;;;;;;0.67;0.67;;;;;;;;4997464;28;45470;-65
2022/09/05 04:41:58;;;;;;;;;1.00;1.00;;;;;;;;4998311;28;45330;-65
2022/09/05 04:44:29;;;;;;;;;1.00;0.67;;;;;;;;5005646;28;45584;-65
2022/09/05 04:46:58;;;;;;;;;1.00;1.00;;;;;;;;5002362;28;45213;-65
2022/09/05 04:49:32;;;;;;;;;2.00;2.00;;;;;;;;5000353;28;45790;-65
2022/09/05 04:52:20;;;;;;;;;2.00;2.00;;;;;;;;5003851;28;45535;-65
2022/09/05 04:54:54;;;;;;;;;1.33;1.33;;;;;;;;4980049;28;45462;-65
2022/09/05 04:57:24;;;;;;;;;2.00;2.00;;;;;;;;4999368;28;45494;-65
2022/09/05 04:59:52;;;;;;;;;2.00;1.00;;;;;;;;5000759;28;46130;-64
2022/09/05 05:02:20;;;;;;;;;1.00;1.00;;;;;;;;5001079;28;45282;-65
2022/09/05 05:04:46;;;;;;;;;3.00;2.00;;;;;;;;4997410;28;45385;-66
2022/09/05 05:07:18;;;;;;;;;1.67;1.67;;;;;;;;5000355;28;46263;-66
2022/09/05 05:09:47;;;;;;;;;2.00;2.00;;;;;;;;5000923;28;45328;-63
2022/09/05 05:12:31;;;;;;;;;4.33;2.67;;;;;;;;5009094;28;45358;-64
2022/09/05 05:15:00;;;;;;;;;1.67;1.67;;;;;;;;4998052;28;45745;-63
2022/09/05 05:17:44;;;;;;;;;2.67;1.00;;;;;;;;5000569;28;45300;-64
2022/09/05 05:20:21;;;;;;;;;2.00;2.00;;;;;;;;5000913;28;46205;-64
2022/09/05 05:22:52;;;;;;;;;2.00;2.00;;;;;;;;4999527;28;45485;-64
2022/09/05 05:25:17;;;;;;;;;2.00;2.00;;;;;;;;5001373;28;45425;-64
2022/09/05 05:27:51;;;;;;;;;1.67;1.67;;;;;;;;5000913;28;45276;-64
2022/09/05 05:30:24;;;;;;;;;3.00;2.00;;;;;;;;5000768;28;45456;-64
2022/09/05 05:32:51;;;;;;;;;2.67;2.67;;;;;;;;5005213;28;45443;-64
2022/09/05 05:35:25;;;;;;;;;1.00;1.00;;;;;;;;5001033;28;45609;-64
2022/09/05 05:37:54;;;;;;;;;4.00;2.00;;;;;;;;5001281;28;45902;-64
2022/09/05 05:40:25;;;;;;;;;2.33;2.33;;;;;;;;5000755;28;46066;-64
2022/09/05 05:42:50;;;;;;;;;2.75;1.00;;;;;;;;5001227;28;45920;-64
2022/09/05 05:45:24;;;;;;;;;3.00;3.00;;;;;;;;5001002;28;45453;-64
2022/09/05 05:47:55;;;;;;;;;1.00;1.00;;;;;;;;5006987;28;45544;-64
2022/09/05 05:50:24;;;;;;;;;2.00;2.00;;;;;;;;5006532;28;45644;-64
2022/09/05 05:52:57;;;;;;;;;2.67;2.33;;;;;;;;5003478;28;45492;-64
2022/09/05 05:55:41;;;;;;;;;1.00;1.00;;;;;;;;5006541;28;45347;-65
2022/09/05 05:58:25;;;;;;;;;2.67;2.67;;;;;;;;5006846;28;45759;-64
2022/09/05 06:01:05;;;;;;;;;3.00;3.00;;;;;;;;5010168;28;46363;-65
2022/09/05 06:03:43;;;;;;;;;3.00;3.00;;;;;;;;5005175;28;45275;-64
2022/09/05 06:06:11;;;;;;;;;3.00;2.00;;;;;;;;5000790;28;45562;-64
2022/09/05 06:08:55;;;;;;;;;3.00;3.00;;;;;;;;4999003;28;45352;-64
2022/09/05 06:11:48;;;;;;;;;1.00;1.00;;;;;;;;4992869;28;45504;-65
2022/09/05 06:14:32;;;;;;;;;3.00;3.00;;;;;;;;4990841;28;45743;-65
2022/09/05 06:17:07;;;;;;;;;3.00;3.00;;;;;;;;5007978;28;45256;-65
2022/09/05 06:19:44;;;;;;;;;4.33;4.33;;;;;;;;4995435;28;45553;-65
2022/09/05 06:22:29;;;;;;;;;4.00;4.00;;;;;;;;5009673;28;46233;-65
2022/09/05 06:25:15;;;;;;;;;5.33;4.00;;;;;;;;5000827;28;45338;-65
2022/09/05 06:27:43;;;;;;;;;6.67;6.00;;;;;;;;4983755;28;45532;-65
2022/09/05 06:30:12;;;;;;;;;4.67;4.67;;;;;;;;5007279;28;45287;-65
2022/09/05 06:32:38;;;;;;;;;4.00;4.00;;;;;;;;5004763;28;46401;-64
2022/09/05 06:35:22;;;;;;;;;4.00;4.00;;;;;;;;5008138;28;45276;-64
2022/09/05 06:37:50;;;;;;;;;5.00;5.00;;;;;;;;5005565;28;45289;-63
2022/09/05 06:40:15;;;;;;;;;4.00;4.00;;;;;;;;5001935;28;45482;-64
2022/09/05 06:43:00;;;;;;;;;4.00;4.00;;;;;;;;5004331;28;46343;-64
2022/09/05 06:45:25;;;;;;;;;4.00;4.00;;;;;;;;4995583;28;45356;-65
2022/09/05 06:47:55;;;;;;;;;6.00;6.00;;;;;;;;4999958;28;45778;-65
2022/09/05 06:50:23;;;;;;;;;3.33;3.33;;;;;;;;4997035;28;45425;-65
2022/09/05 06:53:04;;;;;;;;;4.33;4.33;;;;;;;;4999220;28;46356;-66
2022/09/05 06:55:30;;;;;;;;;7.67;4.33;;;;;;;;4998441;28;45440;-66
2022/09/05 06:57:55;;;;;;;;;6.00;5.00;;;;;;;;4997984;28;45387;-66
2022/09/05 07:00:23;;;;;;;;;4.50;4.50;;;;;;;;4998734;28;45609;-66
2022/09/05 07:03:07;;;;;;;;;5.33;5.00;;;;;;;;4998455;28;46246;-67
2022/09/05 07:05:38;;;;;;;;;4.25;3.75;;;;;;;;4992661;28;45340;-66
2022/09/05 07:08:23;;;;;;;;;2.25;2.25;;;;;;;;5003065;28;45326;-64
2022/09/05 07:10:54;;;;;;;;;2.00;2.00;;;;;;;;4999689;28;45417;-64
2022/09/05 07:13:19;;;;;;;;;2.75;2.75;;;;;;;;4993280;28;46997;-65
2022/09/05 07:15:53;;;;;;;;;1.75;1.75;;;;;;;;4994390;28;45565;-65
2022/09/05 07:18:25;;;;;;;;;1.50;1.50;;;;;;;;4999997;28;45417;-65
2022/09/05 07:20:52;;;;;;;;;3.25;3.00;;;;;;;;4995823;28;45613;-64
2022/09/05 07:23:39;;;;;;;;;3.00;3.00;;;;;;;;5002484;28;46490;-66
2022/09/05 07:26:05;;;;;;;;;2.75;1.75;;;;;;;;5001755;28;45371;-64
2022/09/05 07:28:32;;;;;;;;;2.75;2.75;;;;;;;;5005341;28;45459;-66
2022/09/05 07:31:04;;;;;;;;;3.75;3.75;;;;;;;;5006225;28;45303;-65
2022/09/05 07:33:30;;;;;;;;;0.25;0.25;;;;;;;;5003974;28;46939;-66
2022/09/05 07:36:05;;;;;;;;;3.25;1.75;;;;;;;;4997161;28;45458;-65
2022/09/05 07:38:31;;;;;;;;;3.33;3.33;;;;;;;;4990796;28;45561;-65
2022/09/05 07:41:01;;;;;;;;;2.00;2.00;;;;;;;;4996221;28;45574;-66
2022/09/05 07:43:31;;;;;;;;;1.00;1.00;;;;;;;;4994796;28;47227;-66
2022/09/05 07:46:00;;;;;;;;;3.00;3.00;;;;;;;;4996131;28;45464;-65
2022/09/05 07:48:30;;;;;;;;;3.00;3.00;;;;;;;;4996199;28;45344;-65
2022/09/05 07:50:58;;;;;;;;;3.00;3.00;;;;;;;;5003136;28;45419;-65
2022/09/05 07:53:24;;;;;;;;;3.25;2.75;;;;;;;;4998918;28;45946;-65
2022/09/05 07:55:52;;;;;;;;;1.25;1.25;;;;;;;;4997809;28;45454;-66
2022/09/05 07:58:20;;;;;;;;;2.00;1.25;;;;;;;;4999483;28;45473;-65
2022/09/05 08:00:50;;;;;;;;;2.00;2.00;;;;;;;;5007461;28;45254;-65
2022/09/05 08:03:16;;;;;;;;;3.00;3.00;;;;;;;;5002883;28;45501;-65
2022/09/05 08:05:43;;;;;;;;;3.67;3.00;;;;;;;;5002482;28;45414;-65
2022/09/05 08:08:11;;;;;;;;;2.67;2.67;;;;;;;;5005208;28;45475;-65
2022/09/05 08:10:43;;;;;;;;;1.00;1.00;;;;;;;;5005404;28;45391;-65
2022/09/05 08:13:10;;;;;;;;;1.00;1.00;;;;;;;;5002307;28;45398;-66
2022/09/05 08:15:37;;;;;;;;;2.00;2.00;;;;;;;;5005725;28;46886;-65
2022/09/05 08:18:05;;;;;;;;;4.00;3.00;;;;;;;;5005437;28;45426;-65
2022/09/05 08:20:34;;;;;;;;;1.75;1.75;;;;;;;;5006970;28;45543;-65
2022/09/05 08:23:17;;;;;;;;;2.33;1.67;;;;;;;;4996258;28;46169;-65
2022/09/05 08:25:50;;;;;;;;;3.00;3.00;;;;;;;;5007626;28;45282;-65
2022/09/05 08:28:23;;;;;;;;;2.50;2.50;;;;;;;;5000360;28;45497;-65
2022/09/05 08:30:58;;;;;;;;;3.50;3.50;;;;;;;;5001306;28;45652;-65
2022/09/05 08:33:28;;;;;;;;;1.50;1.50;;;;;;;;4994210;28;45597;-65
2022/09/05 08:36:00;;;;;;;;;3.00;2.67;;;;;;;;4999110;28;45280;-65
2022/09/05 08:38:27;;;;;;;;;4.00;2.25;;;;;;;;5001407;28;45505;-66
2022/09/05 08:40:55;;;;;;;;;2.00;1.00;;;;;;;;5004214;28;45538;-65
2022/09/05 08:43:32;;;;;;;;;2.00;2.00;;;;;;;;5000825;28;45582;-66
2022/09/05 08:46:03;;;;;;;;;3.75;2.25;;;;;;;;5001521;28;45533;-65
2022/09/05 08:48:48;;;;;;;;;2.25;2.25;;;;;;;;5001660;28;45337;-65
2022/09/05 08:51:19;;;;;;;;;2.25;1.75;;;;;;;;5007930;28;45653;-66
2022/09/05 08:54:12;;;;;;;;;2.75;2.75;;;;;;;;5006997;28;45483;-66
2022/09/05 08:56:44;;;;;;;;;1.75;1.75;;;;;;;;4998467;28;45405;-65
2022/09/05 08:59:18;;;;;;;;;2.00;2.00;;;;;;;;5000186;28;45313;-65
2022/09/05 09:01:46;;;;;;;;;0.75;0.75;;;;;;;;5004379;28;46440;-65
2022/09/05 09:04:36;;;;;;;;;1.00;1.00;;;;;;;;5007372;28;46194;-66
2022/09/05 09:07:07;;;;;;;;;2.75;2.75;;;;;;;;4992113;28;45241;-66
2022/09/05 09:09:36;;;;;;;;;6.33;4.67;;;;;;;;5014791;28;45295;-66
2022/09/05 09:12:01;;;;;;;;;3.25;3.25;;;;;;;;4995894;28;45291;-66
2022/09/05 09:14:45;;;;;;;;;2.75;2.75;;;;;;;;5004771;28;45538;-65
2022/09/05 09:17:18;;;;;;;;;2.00;2.00;;;;;;;;4997859;28;45477;-66
2022/09/05 09:19:46;;;;;;;;;1.25;1.25;;;;;;;;5003681;28;45505;-66
2022/09/05 09:22:11;;;;;;;;;3.00;3.00;;;;;;;;4995924;28;45474;-66
2022/09/05 09:24:41;;;;;;;;;1.00;1.00;;;;;;;;5003606;28;46082;-66
2022/09/05 09:27:12;;;;;;;;;2.25;2.25;;;;;;;;5002188;28;45448;-66
2022/09/05 09:29:39;;;;;;;;;2.50;2.50;;;;;;;;5002724;28;45363;-66
2022/09/05 09:32:07;;;;;;;;;1.75;1.75;;;;;;;;5011882;28;45489;-66
2022/09/05 09:34:32;;;;;;;;;2.00;2.00;;;;;;;;5000401;28;45733;-66
2022/09/05 11:40:43;;;;;;;;;1.50;0.75;;;;;;;;4991994;28;74519;-65
2022/09/05 11:43:17;;;;;;;;;0.00;0.00;;;;;;;;4992924;28;45621;-66
2022/09/05 11:46:01;;;;;;;;;1.00;1.00;;;;;;;;4993697;28;45557;-65
2022/09/05 11:48:35;;;;;;;;;0.00;0.00;;;;;;;;4994621;28;45874;-64
2022/09/05 11:51:09;;;;;;;;;0.67;0.67;;;;;;;;5006619;28;46418;-65
2022/09/05 11:53:53;;;;;;;;;0.00;0.00;;;;;;;;4991850;28;45827;-65
2022/09/05 11:56:24;;;;;;;;;0.00;0.00;;;;;;;;4993799;28;45502;-64
2022/09/05 11:59:08;;;;;;;;;0.00;0.00;;;;;;;;5005831;28;45282;-64
2022/09/05 12:01:59;;;;;;;;;0.00;0.00;;;;;;;;4996976;28;45601;-65
2022/09/05 12:04:45;;;;;;;;;0.00;0.00;;;;;;;;5001327;28;45480;-65
2022/09/05 12:07:33;;;;;;;;;0.00;0.00;;;;;;;;5003805;28;45561;-65
2022/09/05 12:10:16;;;;;;;;;0.00;0.00;;;;;;;;4990080;28;45320;-65
2022/09/05 12:12:47;;;;;;;;;0.00;0.00;;;;;;;;4997739;28;45599;-64
2022/09/05 12:15:15;;;;;;;;;0.00;0.00;;;;;;;;4999782;28;45383;-65
2022/09/05 12:17:45;;;;;;;;;0.33;0.33;;;;;;;;4998294;28;45340;-64
2022/09/05 12:20:21;;;;;;;;;0.67;0.67;;;;;;;;5003158;28;45570;-64
2022/09/05 12:23:00;;;;;;;;;0.00;0.00;;;;;;;;4996649;28;46406;-64
2022/09/05 12:25:46;;;;;;;;;0.00;0.00;;;;;;;;4996435;28;45258;-64
2022/09/05 12:28:16;;;;;;;;;0.00;0.00;;;;;;;;4998427;28;45545;-65
2022/09/05 12:30:43;;;;;;;;;0.00;0.00;;;;;;;;4997459;28;45362;-65
2022/09/05 12:33:12;;;;;;;;;0.00;0.00;;;;;;;;4996155;28;46835;-65
2022/09/05 12:35:43;;;;;;;;;0.00;0.00;;;;;;;;4999019;28;45428;-64
2022/09/05 12:38:29;;;;;;;;;0.00;0.00;;;;;;;;5003582;28;45386;-64
2022/09/05 12:41:13;;;;;;;;;0.00;0.00;;;;;;;;5001008;28;46051;-64
2022/09/05 12:43:42;;;;;;;;;0.00;0.00;;;;;;;;4995006;28;45503;-64
2022/09/05 12:46:16;;;;;;;;;0.33;0.33;;;;;;;;4994928;28;45528;-64
2022/09/05 12:48:44;;;;;;;;;0.00;0.00;;;;;;;;4992138;28;45441;-64
2022/09/05 12:51:14;;;;;;;;;0.00;0.00;;;;;;;;4997944;28;45407;-64
2022/09/05 12:53:44;;;;;;;;;0.00;0.00;;;;;;;;4996794;28;46981;-64
2022/09/05 12:56:16;;;;;;;;;1.00;0.00;;;;;;;;4996186;28;45435;-64
2022/09/05 12:58:44;;;;;;;;;0.00;0.00;;;;;;;;4994682;28;45488;-64
2022/09/05 13:01:15;;;;;;;;;0.00;0.00;;;;;;;;4998731;28;45544;-64
2022/09/05 13:03:49;;;;;;;;;0.67;0.67;;;;;;;;5000191;28;47402;-64
2022/09/05 13:06:20;;;;;;;;;0.00;0.00;;;;;;;;5004061;28;45387;-65
2022/09/05 13:08:47;;;;;;;;;0.00;0.00;;;;;;;;5003353;28;45411;-64
2022/09/05 13:11:16;;;;;;;;;0.00;0.00;;;;;;;;5002071;28;45696;-65
2022/09/05 13:13:47;;;;;;;;;1.00;1.00;;;;;;;;5004935;28;46218;-65
2022/09/05 13:16:23;;;;;;;;;1.00;1.00;;;;;;;;4999444;28;45520;-65
2022/09/05 13:18:51;;;;;;;;;1.00;1.00;;;;;;;;5007763;28;45381;-64
2022/09/05 13:21:24;;;;;;;;;0.00;0.00;;;;;;;;5001462;28;45619;-65
2022/09/05 13:24:00;;;;;;;;;0.25;0.25;;;;;;;;5000079;28;45448;-65
2022/09/05 13:26:32;;;;;;;;;0.00;0.00;;;;;;;;5008678;28;45441;-64
2022/09/05 13:29:01;;;;;;;;;0.00;0.00;;;;;;;;5000742;28;45400;-65
2022/09/05 13:31:41;;;;;;;;;0.25;0.25;;;;;;;;5000062;28;45605;-65
2022/09/05 13:34:13;;;;;;;;;0.00;0.00;;;;;;;;4990361;28;46228;-65
2022/09/05 13:36:47;;;;;;;;;0.00;0.00;;;;;;;;4999641;28;45644;-65
2022/09/05 13:39:16;;;;;;;;;0.00;0.00;;;;;;;;5003058;28;45522;-65
2022/09/05 13:41:43;;;;;;;;;0.00;0.00;;;;;;;;5001041;28;45425;-65
2022/09/05 13:44:12;;;;;;;;;1.00;0.00;;;;;;;;4997326;28;46334;-64
2022/09/05 13:46:56;;;;;;;;;0.00;0.00;;;;;;;;4999767;28;45516;-64
2022/09/05 13:49:24;;;;;;;;;0.75;0.75;;;;;;;;5004708;28;45539;-64
2022/09/05 13:51:54;;;;;;;;;1.25;1.25;;;;;;;;5004803;28;46521;-64
2022/09/05 13:54:32;;;;;;;;;0.00;0.00;;;;;;;;5000115;28;46317;-64
2022/09/05 13:57:03;;;;;;;;;1.50;1.50;;;;;;;;5005659;28;45537;-65
2022/09/05 13:59:32;;;;;;;;;1.00;1.00;;;;;;;;5001082;28;45356;-65
2022/09/05 14:02:36;;;;;;;;;1.00;1.00;;;;;;;;4997242;28;45626;-65
2022/09/05 14:05:01;;;;;;;;;0.00;0.00;;;;;;;;4962719;28;45511;-66
2022/09/05 14:07:29;;;;;;;;;1.00;1.00;;;;;;;;4963291;28;47931;-65
2022/09/05 14:10:06;;;;;;;;;1.75;1.00;;;;;;;;4984127;28;45395;-65
2022/09/05 14:12:31;;;;;;;;;2.25;2.25;;;;;;;;4998114;28;45501;-65
2022/09/05 14:15:10;;;;;;;;;2.00;0.00;;;;;;;;4999616;28;45689;-65
2022/09/05 14:17:54;;;;;;;;;0.00;0.00;;;;;;;;5001189;28;45546;-65
2022/09/05 14:23:07;;;;;;;;;0.00;0.00;;;;;;;;4999445;28;45655;-65
2022/09/05 14:25:36;;;;;;;;;1.00;1.00;;;;;;;;4998850;28;46140;-65
2022/09/05 14:28:04;;;;;;;;;0.00;0.00;;;;;;;;4999862;28;45377;-65
2022/09/05 14:30:32;;;;;;;;;2.00;2.00;;;;;;;;4996760;28;45680;-64
2022/09/05 14:33:00;;;;;;;;;1.75;1.00;;;;;;;;4999146;28;45354;-65
2022/09/05 14:35:31;;;;;;;;;0.00;0.00;;;;;;;;4995128;28;46156;-64
2022/09/05 14:38:09;;;;;;;;;0.25;0.25;;;;;;;;4996387;28;45477;-65
2022/09/05 14:40:43;;;;;;;;;3.00;1.00;;;;;;;;4994289;28;45584;-65
2022/09/05 14:43:08;;;;;;;;;0.50;0.50;;;;;;;;5004932;28;45534;-65
2022/09/05 14:45:42;;;;;;;;;0.50;0.50;;;;;;;;4997290;28;46330;-65
2022/09/05 14:48:14;;;;;;;;;0.50;0.50;;;;;;;;5006155;28;45464;-65
2022/09/05 14:50:59;;;;;;;;;1.00;1.00;;;;;;;;4998285;28;45514;-65
2022/09/05 14:53:26;;;;;;;;;2.75;1.25;;;;;;;;5000205;28;45204;-66
2022/09/05 14:55:53;;;;;;;;;0.00;0.00;;;;;;;;5003055;28;46550;-66
2022/09/05 14:58:22;;;;;;;;;1.50;1.50;;;;;;;;4999241;28;45493;-65
2022/09/05 15:00:55;;;;;;;;;0.00;0.00;;;;;;;;4997686;28;45461;-65
2022/09/05 15:03:22;;;;;;;;;0.75;0.75;;;;;;;;4992417;28;45393;-65
2022/09/05 15:05:49;;;;;;;;;0.00;0.00;;;;;;;;4995328;28;46385;-65
2022/09/05 15:08:40;;;;;;;;;1.00;1.00;;;;;;;;5006052;28;45374;-64
2022/09/05 15:11:08;;;;;;;;;0.00;0.00;;;;;;;;5002524;28;45542;-65
2022/09/05 15:13:37;;;;;;;;;3.25;2.00;;;;;;;;4997785;28;45586;-65
2022/09/05 15:16:06;;;;;;;;;1.00;1.00;;;;;;;;4997112;28;47175;-65
2022/09/05 15:18:54;;;;;;;;;0.00;0.00;;;;;;;;5001983;28;45593;-65
2022/09/05 15:21:26;;;;;;;;;4.00;2.50;;;;;;;;4988036;28;45511;-65
2022/09/05 15:24:13;;;;;;;;;2.00;2.00;;;;;;;;4998221;28;45280;-65
2022/09/05 15:26:45;;;;;;;;;2.25;1.00;;;;;;;;4996593;28;45522;-65
2022/09/05 15:29:12;;;;;;;;;4.25;3.25;;;;;;;;4998758;28;45589;-65
2022/09/05 15:31:38;;;;;;;;;1.75;1.00;;;;;;;;4995562;28;45500;-65
2022/09/05 15:34:25;;;;;;;;;1.50;1.00;;;;;;;;4999364;28;45296;-66
2022/09/05 15:36:50;;;;;;;;;0.75;0.75;;;;;;;;4995658;28;46393;-65
2022/09/05 15:39:25;;;;;;;;;2.75;2.75;;;;;;;;4997772;28;45197;-66
2022/09/05 15:41:51;;;;;;;;;1.75;1.75;;;;;;;;4998370;28;45591;-67
2022/09/05 15:44:19;;;;;;;;;4.00;3.00;;;;;;;;4997911;28;45493;-64
2022/09/05 15:46:50;;;;;;;;;1.00;1.00;;;;;;;;4995656;28;45549;-66
2022/09/05 15:49:24;;;;;;;;;1.00;1.00;;;;;;;;4997675;28;45519;-66
2022/09/05 15:51:51;;;;;;;;;0.00;0.00;;;;;;;;4995451;28;45437;-66
2022/09/05 15:54:34;;;;;;;;;1.00;1.00;;;;;;;;4996855;28;45690;-66
2022/09/05 15:57:02;;;;;;;;;3.00;2.00;;;;;;;;4995401;28;46225;-66
2022/09/05 15:59:45;;;;;;;;;3.00;1.75;;;;;;;;4996859;28;45426;-66
2022/09/05 16:02:13;;;;;;;;;3.75;3.00;;;;;;;;4996016;28;45436;-66
2022/09/05 16:04:39;;;;;;;;;4.75;4.00;;;;;;;;4994878;28;45492;-66
2022/09/05 16:07:04;;;;;;;;;2.25;2.25;;;;;;;;4996914;28;45450;-66
2022/09/05 16:09:42;;;;;;;;;2.75;2.75;;;;;;;;4997051;28;45381;-66
2022/09/05 16:12:11;;;;;;;;;1.00;1.00;;;;;;;;4996878;28;45566;-66
2022/09/05 16:14:36;;;;;;;;;0.00;0.00;;;;;;;;4997176;28;45491;-65
2022/09/05 16:17:01;;;;;;;;;1.00;1.00;;;;;;;;4997014;28;45376;-65
2022/09/05 16:19:47;;;;;;;;;1.75;1.75;;;;;;;;4997947;28;45441;-66
2022/09/05 16:22:17;;;;;;;;;2.75;2.75;;;;;;;;4995704;28;45501;-66
2022/09/05 16:24:45;;;;;;;;;6.00;6.00;;;;;;;;4997782;28;45565;-65
2022/09/05 16:27:12;;;;;;;;;3.00;3.00;;;;;;;;4996280;28;46198;-65
2022/09/05 16:29:39;;;;;;;;;1.50;0.25;;;;;;;;5002953;28;45406;-66
2022/09/05 16:32:08;;;;;;;;;2.00;2.00;;;;;;;;4997031;28;45410;-66
2022/09/05 16:34:43;;;;;;;;;1.75;1.75;;;;;;;;4998000;28;45663;-65
2022/09/05 16:37:08;;;;;;;;;5.00;3.75;;;;;;;;4996951;28;45540;-65
2022/09/05 16:39:35;;;;;;;;;2.00;2.00;;;;;;;;4996351;28;45373;-65
2022/09/05 16:42:04;;;;;;;;;2.00;1.00;;;;;;;;5003676;28;45639;-66
2022/09/05 16:44:34;;;;;;;;;4.00;2.00;;;;;;;;5001334;28;45241;-66
2022/09/05 16:47:23;;;;;;;;;3.00;3.00;;;;;;;;4989427;28;46949;-65
2022/09/05 16:50:06;;;;;;;;;2.75;2.00;;;;;;;;4992734;28;45521;-65
2022/09/05 16:52:35;;;;;;;;;2.00;2.00;;;;;;;;4996546;28;45455;-65
2022/09/05 16:55:07;;;;;;;;;3.50;3.00;;;;;;;;4998234;28;45643;-65
2022/09/05 16:57:34;;;;;;;;;2.50;2.50;;;;;;;;4997810;28;45462;-65
2022/09/05 17:00:01;;;;;;;;;0.67;0.67;;;;;;;;4998626;28;45639;-65
2022/09/05 17:02:40;;;;;;;;;1.25;1.25;;;;;;;;4998790;28;45802;-64
2022/09/05 17:05:05;;;;;;;;;1.75;1.75;;;;;;;;5003257;28;45485;-64
2022/09/05 17:07:51;;;;;;;;;3.00;2.50;;;;;;;;5000123;28;47114;-64
2022/09/05 17:10:24;;;;;;;;;3.25;3.25;;;;;;;;4993237;28;45478;-64
2022/09/05 17:12:50;;;;;;;;;3.25;3.25;;;;;;;;5003544;28;45406;-64
2022/09/05 17:15:17;;;;;;;;;1.67;1.67;;;;;;;;5003040;28;45281;-64
2022/09/05 17:17:43;;;;;;;;;55.67;28.67;;;;;;;;4997838;28;45400;-63
2022/09/05 17:20:13;;;;;;;;;4.75;4.75;;;;;;;;4998492;28;45632;-65
2022/09/05 17:22:49;;;;;;;;;3.50;3.00;;;;;;;;5005615;28;45499;-64
2022/09/05 17:25:18;;;;;;;;;3.33;3.00;;;;;;;;5002991;28;45437;-65
2022/09/05 17:27:47;;;;;;;;;5.00;5.00;;;;;;;;5013103;28;47103;-65
2022/09/05 17:30:13;;;;;;;;;4.33;4.33;;;;;;;;5008570;28;45394;-65
2022/09/05 17:32:38;;;;;;;;;5.67;4.33;;;;;;;;5005243;28;45284;-65
2022/09/05 17:35:06;;;;;;;;;4.67;4.00;;;;;;;;5000571;28;45335;-66
2022/09/05 17:37:34;;;;;;;;;3.33;3.33;;;;;;;;4991590;28;46181;-66
2022/09/05 17:40:11;;;;;;;;;5.67;5.67;;;;;;;;5000183;28;45557;-66
2022/09/05 17:42:58;;;;;;;;;8.00;5.00;;;;;;;;4993769;28;45684;-66
2022/09/05 17:45:45;;;;;;;;;9.00;7.67;;;;;;;;4998414;28;45741;-65
2022/09/05 17:48:15;;;;;;;;;8.00;6.67;;;;;;;;4995434;28;45708;-64
2022/09/05 17:50:45;;;;;;;;;6.33;5.33;;;;;;;;4997936;28;45680;-65
2022/09/05 17:53:16;;;;;;;;;6.67;6.67;;;;;;;;5007003;28;45575;-64
2022/09/05 17:55:42;;;;;;;;;5.00;5.00;;;;;;;;5003340;28;45595;-65
2022/09/05 17:58:25;;;;;;;;;8.33;6.00;;;;;;;;4996622;28;46025;-66
2022/09/05 18:00:50;;;;;;;;;7.25;1.50;;;;;;;;4998016;28;45564;-65
2022/09/05 18:03:34;;;;;;;;;0.00;0.00;;;;;;;;4999256;28;45431;-65
2022/09/05 18:06:02;;;;;;;;;0.00;0.00;;;;;;;;4997679;28;46100;-64
2022/09/05 18:08:43;;;;;;;;;0.00;0.00;;;;;;;;4997714;28;45927;-64
2022/09/05 18:11:12;;;;;;;;;2.00;0.33;;;;;;;;5001678;28;45435;-63
2022/09/05 18:13:52;;;;;;;;;1.00;1.00;;;;;;;;5007306;28;45373;-63
2022/09/05 18:16:36;;;;;;;;;2.00;2.00;;;;;;;;4992996;28;45590;-64
2022/09/05 18:19:13;;;;;;;;;3.67;3.00;;;;;;;;4998053;28;46265;-64
2022/09/05 18:21:54;;;;;;;;;2.67;2.00;;;;;;;;4999127;28;45483;-64
2022/09/05 18:24:20;;;;;;;;;6.00;6.00;;;;;;;;5002184;28;45731;-63
2022/09/05 18:26:47;;;;;;;;;5.33;5.00;;;;;;;;5002805;28;45348;-64
2022/09/05 18:29:12;;;;;;;;;5.00;3.00;;;;;;;;5003191;28;46061;-64
2022/09/05 18:31:37;;;;;;;;;6.00;4.67;;;;;;;;4999433;28;45495;-64
2022/09/05 18:34:12;;;;;;;;;4.67;4.67;;;;;;;;4997069;28;45702;-63
2022/09/05 18:36:37;;;;;;;;;7.67;6.33;;;;;;;;5005655;28;45794;-64
2022/09/05 18:39:21;;;;;;;;;3.67;3.67;;;;;;;;5004340;28;45640;-65
2022/09/05 18:41:47;;;;;;;;;9.00;7.00;;;;;;;;4994440;28;45330;-64
2022/09/05 18:44:14;;;;;;;;;7.00;7.00;;;;;;;;5012838;28;45354;-65
2022/09/05 18:46:48;;;;;;;;;7.00;7.00;;;;;;;;4998435;28;45690;-65
2022/09/05 18:49:19;;;;;;;;;9.33;6.00;;;;;;;;4997844;28;45484;-65
2022/09/05 18:51:51;;;;;;;;;7.00;7.00;;;;;;;;5003758;28;45319;-65
2022/09/05 18:54:19;;;;;;;;;9.67;8.67;;;;;;;;4999133;28;45430;-66
2022/09/05 18:56:48;;;;;;;;;13.33;10.67;;;;;;;;5002764;28;45437;-65
2022/09/05 18:59:18;;;;;;;;;8.67;8.00;;;;;;;;4998383;28;46416;-66
2022/09/05 19:01:56;;;;;;;;;7.33;7.33;;;;;;;;5008090;28;45385;-66
2022/09/05 19:04:28;;;;;;;;;7.67;7.67;;;;;;;;4994734;28;45608;-65
2022/09/05 19:06:56;;;;;;;;;9.33;9.33;;;;;;;;5002121;28;46517;-66
2022/09/05 19:09:29;;;;;;;;;7.33;7.33;;;;;;;;5005047;28;45450;-66
2022/09/05 19:11:54;;;;;;;;;9.67;6.00;;;;;;;;5000525;28;45621;-66
2022/09/05 19:14:39;;;;;;;;;9.00;5.33;;;;;;;;5002678;28;45355;-65
2022/09/05 19:17:07;;;;;;;;;7.67;7.67;;;;;;;;4984673;28;45513;-66
2022/09/05 19:19:52;;;;;;;;;7.00;7.00;;;;;;;;5000262;28;45738;-65
2022/09/05 19:22:18;;;;;;;;;8.00;8.00;;;;;;;;5000258;28;45652;-65
2022/09/05 19:24:43;;;;;;;;;8.00;7.00;;;;;;;;5003748;28;45534;-65
2022/09/05 19:27:09;;;;;;;;;8.00;8.00;;;;;;;;4999871;28;45542;-65
2022/09/05 19:29:34;;;;;;;;;9.00;6.00;;;;;;;;5001085;28;46263;-66
2022/09/05 19:32:02;;;;;;;;;8.67;7.33;;;;;;;;4999873;28;45294;-65
2022/09/05 19:34:29;;;;;;;;;14.67;10.00;;;;;;;;5002290;28;45316;-66
2022/09/05 19:37:00;;;;;;;;;7.67;7.33;;;;;;;;4996475;28;45549;-66
2022/09/05 19:39:27;;;;;;;;;9.00;9.00;;;;;;;;5004182;28;46273;-66
2022/09/05 19:41:54;;;;;;;;;9.00;8.33;;;;;;;;5004080;28;46664;-65
2022/09/05 19:44:21;;;;;;;;;6.67;6.33;;;;;;;;5007525;28;45228;-66
2022/09/05 19:46:50;;;;;;;;;8.33;8.33;;;;;;;;5004673;28;45335;-66
2022/09/05 19:49:16;;;;;;;;;10.00;10.00;;;;;;;;5010152;28;45394;-65
2022/09/05 19:51:41;;;;;;;;;10.33;8.33;;;;;;;;5006148;28;45352;-65
2022/09/05 19:54:07;;;;;;;;;11.00;9.67;;;;;;;;5018433;28;45311;-65
2022/09/05 19:56:45;;;;;;;;;7.00;7.00;;;;;;;;4997779;28;46631;-65
2022/09/05 19:59:18;;;;;;;;;9.33;9.33;;;;;;;;4996792;28;45507;-65
2022/09/05 20:01:43;;;;;;;;;11.00;10.67;;;;;;;;5003007;28;45307;-66
2022/09/05 20:04:15;;;;;;;;;12.33;9.33;;;;;;;;5011057;28;45343;-66
2022/09/05 20:06:40;;;;;;;;;7.33;7.33;;;;;;;;4990972;28;45383;-65
2022/09/05 20:09:13;;;;;;;;;8.00;8.00;;;;;;;;4999725;28;45769;-65
2022/09/05 20:11:38;;;;;;;;;9.00;9.00;;;;;;;;4997134;28;45410;-65
2022/09/05 20:14:17;;;;;;;;;9.33;8.67;;;;;;;;4994096;28;46080;-65
2022/09/05 20:16:43;;;;;;;;;11.00;11.00;;;;;;;;5009105;28;45289;-65
2022/09/05 20:19:25;;;;;;;;;9.00;8.00;;;;;;;;5004552;28;45411;-65
2022/09/05 20:21:51;;;;;;;;;9.67;9.00;;;;;;;;4993610;28;45403;-65
2022/09/05 20:24:17;;;;;;;;;11.67;10.00;;;;;;;;5007736;28;45697;-65
2022/09/05 20:26:43;;;;;;;;;12.00;12.00;;;;;;;;5001352;28;45540;-65
2022/09/05 20:29:11;;;;;;;;;13.00;11.33;;;;;;;;4998590;28;46245;-65
2022/09/05 20:31:37;;;;;;;;;11.33;11.00;;;;;;;;5000203;28;45343;-65
2022/09/05 20:34:04;;;;;;;;;10.33;10.33;;;;;;;;5005031;28;45497;-65
2022/09/05 20:36:32;;;;;;;;;11.33;11.00;;;;;;;;5004507;28;45372;-65
2022/09/05 20:39:04;;;;;;;;;13.33;13.00;;;;;;;;5012599;28;45635;-65
2022/09/05 20:41:30;;;;;;;;;13.33;12.33;;;;;;;;5008829;28;45343;-64
2022/09/05 20:43:56;;;;;;;;;11.33;11.33;;;;;;;;5015541;28;45380;-65
2022/09/05 20:46:26;;;;;;;;;12.33;10.33;;;;;;;;5015645;28;45427;-66
2022/09/05 20:48:52;;;;;;;;;13.33;13.00;;;;;;;;5012445;28;45454;-64
2022/09/05 20:51:17;;;;;;;;;14.33;12.00;;;;;;;;5011042;28;45432;-64
2022/09/05 20:53:42;;;;;;;;;10.00;10.00;;;;;;;;5021283;28;45428;-65
2022/09/05 20:56:08;;;;;;;;;10.33;10.33;;;;;;;;5019983;28;45363;-65
2022/09/05 20:58:34;;;;;;;;;12.00;10.67;;;;;;;;5014098;28;45440;-65
2022/09/05 21:01:31;;;;;;;;;11.00;10.67;;;;;;;;5009786;28;45635;-65
2022/09/05 21:04:03;;;;;;;;;13.00;13.00;;;;;;;;4994803;28;45447;-64
2022/09/05 21:06:35;;;;;;;;;14.33;13.33;;;;;;;;5006735;28;45544;-65
2022/09/05 21:09:19;;;;;;;;;11.33;11.33;;;;;;;;5016117;28;46184;-64
2022/09/05 21:11:45;;;;;;;;;14.33;13.00;;;;;;;;5009213;28;45441;-65
2022/09/05 21:14:16;;;;;;;;;11.00;11.00;;;;;;;;5003029;28;45410;-65
2022/09/05 21:16:54;;;;;;;;;14.00;12.00;;;;;;;;4997884;28;45521;-63
2022/09/05 21:19:24;;;;;;;;;15.33;15.33;;;;;;;;5010562;28;46071;-65
2022/09/05 21:22:02;;;;;;;;;13.67;12.33;;;;;;;;5014105;28;45535;-67
2022/09/05 21:24:28;;;;;;;;;14.00;12.00;;;;;;;;5007551;28;45531;-64
2022/09/05 21:27:10;;;;;;;;;16.67;12.33;;;;;;;;5013934;28;45384;-64
2022/09/05 21:29:38;;;;;;;;;15.67;13.00;;;;;;;;5005859;28;45553;-65
2022/09/05 21:32:05;;;;;;;;;16.00;12.00;;;;;;;;5010097;28;45308;-65
2022/09/05 21:34:32;;;;;;;;;18.67;16.33;;;;;;;;5006888;28;45419;-64
2022/09/05 21:36:57;;;;;;;;;17.00;14.67;;;;;;;;4996468;28;45635;-65
2022/09/05 21:39:28;;;;;;;;;19.00;16.33;;;;;;;;5009301;28;46913;-64
2022/09/05 21:41:54;;;;;;;;;15.33;12.67;;;;;;;;5004295;28;45351;-65
2022/09/05 21:44:19;;;;;;;;;17.00;17.00;;;;;;;;5009570;28;45408;-65
2022/09/05 21:46:46;;;;;;;;;16.00;15.00;;;;;;;;5006020;28;45334;-64